sensor_id;sensor_type;location;lat;lon;timestamp;pressure;altitude;pressure_sealevel;temperature;humidity
35806;BME280;21925;44.608;11.580;2022-11-20T00:01:42;100753.75;;;9.70;100.00
35806;BME280;21925;44.608;11.580;2022-11-20T00:04:12;100798.63;;;9.90;100.00
35806;BME280;21925;44.608;11.580;2022-11-20T00:06:46;100936.63;;;10.77;100.00
35806;BME280;21925;44.608;11.580;2022-11-20T00:09:13;100816.69;;;10.03;100.00
35806;BME280;21925;44.608;11.580;2022-11-20T00:11:42;100810.16;;;9.95;100.00
35806;BME280;21925;44.608;11.580;2022-11-20T00:14:10;100882.00;;;10.36;100.00
35806;BME280;21925;44.608;11.580;2022-11-20T00:16:38;100937.53;;;10.69;100.00
35806;BME280;21925;44.608;11.580;2022-11-20T00:19:06;100910.09;;;10.45;100.00
35806;BME280;21925;44.608;11.580;2022-11-20T00:21:33;100933.41;;;10.63;100.00
35806;BME280;21925;44.608;11.580;2022-11-20T00:24:00;100799.75;;;9.77;100.00
35806;BME280;21925;44.608;11.580;2022-11-20T00:26:29;100755.66;;;9.46;100.00
35806;BME280;21925;44.608;11.580;2022-11-20T00:28:59;100876.53;;;10.25;100.00
35806;BME280;21925;44.608;11.580;2022-11-20T00:31:28;100789.66;;;9.57;100.00
35806;BME280;21925;44.608;11.580;2022-11-20T00:33:56;100903.22;;;10.28;100.00
35806;BME280;21925;44.608;11.580;2022-11-20T00:36:31;100758.38;;;9.34;100.00
35806;BME280;21925;44.608;11.580;2022-11-20T00:38:59;100781.91;;;9.59;100.00
35806;BME280;21925;44.608;11.580;2022-11-20T00:41:28;100767.28;;;9.43;100.00
35806;BME280;21925;44.608;11.580;2022-11-20T00:43:59;100923.56;;;10.50;100.00
35806;BME280;21925;44.608;11.580;2022-11-20T00:46:27;100768.63;;;9.37;100.00
35806;BME280;21925;44.608;11.580;2022-11-20T00:48:55;100921.19;;;10.37;100.00
35806;BME280;21925;44.608;11.580;2022-11-20T00:51:25;100757.78;;;9.29;100.00
35806;BME280;21925;44.608;11.580;2022-11-20T00:54:01;100964.03;;;10.41;100.00
35806;BME280;21925;44.608;11.580;2022-11-20T00:56:30;100902.03;;;9.93;100.00
35806;BME280;21925;44.608;11.580;2022-11-20T00:59:00;100912.38;;;9.87;100.00
35806;BME280;21925;44.608;11.580;2022-11-20T01:01:28;100936.75;;;10.01;100.00
35806;BME280;21925;44.608;11.580;2022-11-20T01:03:59;100989.19;;;10.23;100.00
35806;BME280;21925;44.608;11.580;2022-11-20T01:06:35;100878.75;;;9.66;100.00
35806;BME280;21925;44.608;11.580;2022-11-20T01:09:10;100922.06;;;9.85;100.00
35806;BME280;21925;44.608;11.580;2022-11-20T01:11:39;100977.34;;;10.19;100.00
35806;BME280;21925;44.608;11.580;2022-11-20T01:14:12;100981.56;;;10.17;100.00
35806;BME280;21925;44.608;11.580;2022-11-20T01:16:47;100971.63;;;10.24;100.00
35806;BME280;21925;44.608;11.580;2022-11-20T01:19:17;100975.72;;;10.18;100.00
35806;BME280;21925;44.608;11.580;2022-11-20T01:21:52;100885.00;;;9.55;100.00
35806;BME280;21925;44.608;11.580;2022-11-20T01:24:20;100838.78;;;9.21;100.00
35806;BME280;21925;44.608;11.580;2022-11-20T01:26:48;100928.22;;;9.82;100.00
35806;BME280;21925;44.608;11.580;2022-11-20T01:29:25;100898.69;;;9.55;100.00
35806;BME280;21925;44.608;11.580;2022-11-20T01:31:57;100907.28;;;9.65;100.00
35806;BME280;21925;44.608;11.580;2022-11-20T01:34:27;100880.09;;;9.49;100.00
35806;BME280;21925;44.608;11.580;2022-11-20T01:36:55;100984.84;;;10.10;100.00
35806;BME280;21925;44.608;11.580;2022-11-20T01:39:24;101001.16;;;10.19;100.00
35806;BME280;21925;44.608;11.580;2022-11-20T01:41:56;100990.44;;;10.14;100.00
35806;BME280;21925;44.608;11.580;2022-11-20T01:47:27;101011.22;;;10.15;100.00
35806;BME280;21925;44.608;11.580;2022-11-20T01:50:01;100819.28;;;8.90;100.00
35806;BME280;21925;44.608;11.580;2022-11-20T01:52:38;101017.59;;;10.07;100.00
35806;BME280;21925;44.608;11.580;2022-11-20T01:55:15;100875.81;;;9.19;100.00
35806;BME280;21925;44.608;11.580;2022-11-20T01:57:48;100809.88;;;8.79;100.00
35806;BME280;21925;44.608;11.580;2022-11-20T02:00:17;100900.41;;;9.27;100.00
35806;BME280;21925;44.608;11.580;2022-11-20T02:02:51;101004.28;;;9.97;100.00
35806;BME280;21925;44.608;11.580;2022-11-20T02:05:44;101029.06;;;10.00;100.00
35806;BME280;21925;44.608;11.580;2022-11-20T02:08:13;100934.25;;;9.55;100.00
35806;BME280;21925;44.608;11.580;2022-11-20T02:10:40;100799.47;;;8.73;100.00
35806;BME280;21925;44.608;11.580;2022-11-20T02:13:06;101001.88;;;9.95;100.00
35806;BME280;21925;44.608;11.580;2022-11-20T02:15:52;101006.41;;;9.91;100.00
35806;BME280;21925;44.608;11.580;2022-11-20T02:18:23;100932.41;;;9.47;100.00
35806;BME280;21925;44.608;11.580;2022-11-20T02:20:55;101003.22;;;9.89;100.00
35806;BME280;21925;44.608;11.580;2022-11-20T02:23:39;100998.16;;;9.79;100.00
35806;BME280;21925;44.608;11.580;2022-11-20T02:26:15;100952.13;;;9.41;100.00
35806;BME280;21925;44.608;11.580;2022-11-20T02:28:44;101007.28;;;9.63;100.00
35806;BME280;21925;44.608;11.580;2022-11-20T02:31:12;100887.75;;;8.94;100.00
35806;BME280;21925;44.608;11.580;2022-11-20T02:33:39;100895.66;;;8.95;100.00
35806;BME280;21925;44.608;11.580;2022-11-20T02:36:09;100975.13;;;9.40;100.00
35806;BME280;21925;44.608;11.580;2022-11-20T02:38:41;101007.16;;;9.59;100.00
35806;BME280;21925;44.608;11.580;2022-11-20T02:41:09;101001.81;;;9.63;100.00
35806;BME280;21925;44.608;11.580;2022-11-20T02:43:37;100962.25;;;9.40;100.00
35806;BME280;21925;44.608;11.580;2022-11-20T02:46:08;101007.16;;;9.59;100.00
35806;BME280;21925;44.608;11.580;2022-11-20T02:48:37;101001.91;;;9.54;100.00
35806;BME280;21925;44.608;11.580;2022-11-20T02:51:04;101030.81;;;9.64;100.00
35806;BME280;21925;44.608;11.580;2022-11-20T02:53:32;100993.94;;;9.41;100.00
35806;BME280;21925;44.608;11.580;2022-11-20T02:55:58;100994.09;;;9.45;100.00
35806;BME280;21925;44.608;11.580;2022-11-20T02:58:28;100941.94;;;9.00;100.00
35806;BME280;21925;44.608;11.580;2022-11-20T03:00:54;101020.06;;;9.59;100.00
35806;BME280;21925;44.608;11.580;2022-11-20T03:03:24;100920.13;;;8.92;100.00
35806;BME280;21925;44.608;11.580;2022-11-20T03:05:55;100898.63;;;8.82;100.00
35806;BME280;21925;44.608;11.580;2022-11-20T03:08:22;100989.94;;;9.39;100.00
35806;BME280;21925;44.608;11.580;2022-11-20T03:10:49;100881.69;;;8.68;100.00
35806;BME280;21925;44.608;11.580;2022-11-20T03:13:20;100850.16;;;8.42;100.00
35806;BME280;21925;44.608;11.580;2022-11-20T03:15:50;101026.13;;;9.44;100.00
35806;BME280;21925;44.608;11.580;2022-11-20T03:18:17;100947.88;;;9.02;100.00
35806;BME280;21925;44.608;11.580;2022-11-20T03:20:45;100961.22;;;9.04;100.00
35806;BME280;21925;44.608;11.580;2022-11-20T03:23:12;101030.31;;;9.42;100.00
35806;BME280;21925;44.608;11.580;2022-11-20T03:25:39;100965.16;;;8.94;100.00
35806;BME280;21925;44.608;11.580;2022-11-20T03:28:07;100870.09;;;8.42;100.00
35806;BME280;21925;44.608;11.580;2022-11-20T03:30:35;100980.50;;;9.07;100.00
35806;BME280;21925;44.608;11.580;2022-11-20T03:33:03;100869.13;;;8.38;100.00
35806;BME280;21925;44.608;11.580;2022-11-20T03:35:33;100963.88;;;8.92;100.00
35806;BME280;21925;44.608;11.580;2022-11-20T03:38:00;101035.22;;;9.36;100.00
35806;BME280;21925;44.608;11.580;2022-11-20T03:40:28;100869.97;;;8.30;100.00
35806;BME280;21925;44.608;11.580;2022-11-20T03:42:56;100912.34;;;8.45;100.00
35806;BME280;21925;44.608;11.580;2022-11-20T03:45:23;100959.66;;;8.66;100.00
35806;BME280;21925;44.608;11.580;2022-11-20T03:47:50;100947.78;;;8.62;100.00
35806;BME280;21925;44.608;11.580;2022-11-20T03:50:18;100900.38;;;8.20;100.00
35806;BME280;21925;44.608;11.580;2022-11-20T03:52:44;101057.00;;;9.24;100.00
35806;BME280;21925;44.608;11.580;2022-11-20T03:55:11;101069.06;;;9.23;100.00
35806;BME280;21925;44.608;11.580;2022-11-20T03:57:38;101054.25;;;9.24;100.00
35806;BME280;21925;44.608;11.580;2022-11-20T04:00:09;100882.47;;;7.94;100.00
35806;BME280;21925;44.608;11.580;2022-11-20T04:02:36;101069.75;;;9.12;100.00
35806;BME280;21925;44.608;11.580;2022-11-20T04:05:03;100988.00;;;8.53;100.00
35806;BME280;21925;44.608;11.580;2022-11-20T04:07:30;100875.09;;;7.86;100.00
35806;BME280;21925;44.608;11.580;2022-11-20T04:09:57;100952.56;;;8.36;100.00
35806;BME280;21925;44.608;11.580;2022-11-20T04:12:23;100937.66;;;8.25;100.00
35806;BME280;21925;44.608;11.580;2022-11-20T04:14:53;101066.09;;;9.08;100.00
35806;BME280;21925;44.608;11.580;2022-11-20T04:17:21;100974.72;;;8.43;100.00
35806;BME280;21925;44.608;11.580;2022-11-20T04:19:48;100970.56;;;8.37;100.00
35806;BME280;21925;44.608;11.580;2022-11-20T04:22:18;100960.47;;;8.20;100.00
35806;BME280;21925;44.608;11.580;2022-11-20T04:24:47;101055.75;;;8.84;100.00
35806;BME280;21925;44.608;11.580;2022-11-20T04:27:19;101003.16;;;8.42;100.00
35806;BME280;21925;44.608;11.580;2022-11-20T04:29:51;100975.69;;;8.38;100.00
35806;BME280;21925;44.608;11.580;2022-11-20T04:32:25;100883.47;;;7.81;100.00
35806;BME280;21925;44.608;11.580;2022-11-20T04:34:52;100940.41;;;8.16;100.00
35806;BME280;21925;44.608;11.580;2022-11-20T04:37:20;101070.34;;;8.88;100.00
35806;BME280;21925;44.608;11.580;2022-11-20T04:39:47;101063.75;;;8.89;100.00
35806;BME280;21925;44.608;11.580;2022-11-20T04:42:15;101041.00;;;8.69;100.00
35806;BME280;21925;44.608;11.580;2022-11-20T04:44:59;101038.81;;;8.45;100.00
35806;BME280;21925;44.608;11.580;2022-11-20T04:47:25;101026.81;;;8.29;100.00
35806;BME280;21925;44.608;11.580;2022-11-20T04:49:50;101054.91;;;8.38;100.00
35806;BME280;21925;44.608;11.580;2022-11-20T04:52:17;100928.78;;;7.65;100.00
35806;BME280;21925;44.608;11.580;2022-11-20T04:54:42;100942.09;;;7.75;100.00
35806;BME280;21925;44.608;11.580;2022-11-20T04:57:08;101072.44;;;8.46;100.00
35806;BME280;21925;44.608;11.580;2022-11-20T04:59:34;101072.72;;;8.53;100.00
35806;BME280;21925;44.608;11.580;2022-11-20T05:02:00;101056.53;;;8.39;100.00
35806;BME280;21925;44.608;11.580;2022-11-20T05:04:26;101079.31;;;8.60;100.00
35806;BME280;21925;44.608;11.580;2022-11-20T05:06:52;101047.06;;;8.37;100.00
35806;BME280;21925;44.608;11.580;2022-11-20T05:09:18;101051.25;;;8.34;100.00
35806;BME280;21925;44.608;11.580;2022-11-20T05:11:43;101011.25;;;8.13;100.00
35806;BME280;21925;44.608;11.580;2022-11-20T05:14:09;101052.69;;;8.32;100.00
35806;BME280;21925;44.608;11.580;2022-11-20T05:16:35;101089.94;;;8.45;100.00
35806;BME280;21925;44.608;11.580;2022-11-20T05:19:02;100998.91;;;7.82;100.00
35806;BME280;21925;44.608;11.580;2022-11-20T05:21:30;101027.34;;;7.89;100.00
35806;BME280;21925;44.608;11.580;2022-11-20T05:23:56;101045.16;;;7.87;100.00
35806;BME280;21925;44.608;11.580;2022-11-20T05:26:21;101048.03;;;7.82;100.00
35806;BME280;21925;44.608;11.580;2022-11-20T05:28:48;101106.69;;;8.18;100.00
35806;BME280;21925;44.608;11.580;2022-11-20T05:31:17;101122.44;;;8.21;100.00
35806;BME280;21925;44.608;11.580;2022-11-20T05:33:45;100993.13;;;7.41;100.00
35806;BME280;21925;44.608;11.580;2022-11-20T05:36:15;101057.69;;;7.71;100.00
35806;BME280;21925;44.608;11.580;2022-11-20T05:38:43;101124.31;;;7.95;100.00
35806;BME280;21925;44.608;11.580;2022-11-20T05:41:15;101117.91;;;7.91;100.00
35806;BME280;21925;44.608;11.580;2022-11-20T05:43:45;101099.72;;;7.78;100.00
35806;BME280;21925;44.608;11.580;2022-11-20T05:46:15;101128.34;;;7.97;100.00
35806;BME280;21925;44.608;11.580;2022-11-20T05:48:43;101110.31;;;7.80;100.00
35806;BME280;21925;44.608;11.580;2022-11-20T05:51:13;101042.88;;;7.46;100.00
35806;BME280;21925;44.608;11.580;2022-11-20T05:53:40;101052.19;;;7.45;100.00
35806;BME280;21925;44.608;11.580;2022-11-20T05:56:12;101112.56;;;7.69;100.00
35806;BME280;21925;44.608;11.580;2022-11-20T05:58:40;101004.13;;;6.94;100.00
35806;BME280;21925;44.608;11.580;2022-11-20T06:01:21;101142.44;;;7.83;100.00
35806;BME280;21925;44.608;11.580;2022-11-20T06:03:49;101052.75;;;7.17;100.00
35806;BME280;21925;44.608;11.580;2022-11-20T06:06:17;101150.47;;;7.71;100.00
35806;BME280;21925;44.608;11.580;2022-11-20T06:08:44;101155.47;;;7.86;100.00
35806;BME280;21925;44.608;11.580;2022-11-20T06:11:12;101133.16;;;7.75;100.00
35806;BME280;21925;44.608;11.580;2022-11-20T06:13:41;101116.28;;;7.73;100.00
35806;BME280;21925;44.608;11.580;2022-11-20T06:16:13;101150.84;;;7.94;100.00
35806;BME280;21925;44.608;11.580;2022-11-20T06:18:43;101095.56;;;7.72;100.00
35806;BME280;21925;44.608;11.580;2022-11-20T06:21:12;101127.34;;;7.85;100.00
35806;BME280;21925;44.608;11.580;2022-11-20T06:23:41;101161.25;;;8.01;100.00
35806;BME280;21925;44.608;11.580;2022-11-20T06:26:13;101133.63;;;7.94;100.00
35806;BME280;21925;44.608;11.580;2022-11-20T06:28:41;101167.44;;;8.15;100.00
35806;BME280;21925;44.608;11.580;2022-11-20T06:31:13;101164.63;;;8.06;100.00
35806;BME280;21925;44.608;11.580;2022-11-20T06:33:41;101169.31;;;8.06;100.00
35806;BME280;21925;44.608;11.580;2022-11-20T06:36:10;101176.22;;;8.12;100.00
35806;BME280;21925;44.608;11.580;2022-11-20T06:38:38;101101.97;;;7.68;100.00
35806;BME280;21925;44.608;11.580;2022-11-20T06:41:35;101179.44;;;8.14;100.00
35806;BME280;21925;44.608;11.580;2022-11-20T06:44:01;101156.78;;;8.05;100.00
35806;BME280;21925;44.608;11.580;2022-11-20T06:46:32;101176.91;;;8.17;100.00
35806;BME280;21925;44.608;11.580;2022-11-20T06:48:59;101185.38;;;8.07;100.00
35806;BME280;21925;44.608;11.580;2022-11-20T06:51:27;101178.34;;;8.15;100.00
35806;BME280;21925;44.608;11.580;2022-11-20T06:53:53;101163.84;;;8.06;100.00
35806;BME280;21925;44.608;11.580;2022-11-20T06:56:21;101189.44;;;8.18;100.00
35806;BME280;21925;44.608;11.580;2022-11-20T06:58:51;101186.88;;;8.22;100.00
35806;BME280;21925;44.608;11.580;2022-11-20T07:01:21;101120.75;;;7.69;100.00
35806;BME280;21925;44.608;11.580;2022-11-20T07:03:51;101193.22;;;8.09;100.00
35806;BME280;21925;44.608;11.580;2022-11-20T07:06:21;101201.59;;;8.04;100.00
35806;BME280;21925;44.608;11.580;2022-11-20T07:08:50;101170.56;;;7.83;100.00
35806;BME280;21925;44.608;11.580;2022-11-20T07:11:19;101133.56;;;7.60;100.00
35806;BME280;21925;44.608;11.580;2022-11-20T07:13:47;101211.41;;;8.05;100.00
35806;BME280;21925;44.608;11.580;2022-11-20T07:16:17;101189.34;;;7.85;100.00
35806;BME280;21925;44.608;11.580;2022-11-20T07:18:44;101194.47;;;7.78;100.00
35806;BME280;21925;44.608;11.580;2022-11-20T07:21:13;101194.81;;;7.85;100.00
35806;BME280;21925;44.608;11.580;2022-11-20T07:23:43;101241.28;;;8.10;100.00
35806;BME280;21925;44.608;11.580;2022-11-20T07:26:10;101245.94;;;8.09;100.00
35806;BME280;21925;44.608;11.580;2022-11-20T07:28:43;101239.19;;;8.07;100.00
35806;BME280;21925;44.608;11.580;2022-11-20T07:31:13;101244.16;;;8.05;100.00
35806;BME280;21925;44.608;11.580;2022-11-20T07:33:40;101247.22;;;8.12;100.00
35806;BME280;21925;44.608;11.580;2022-11-20T07:36:11;101236.44;;;7.98;100.00
35806;BME280;21925;44.608;11.580;2022-11-20T07:38:38;101249.53;;;8.18;100.00
35806;BME280;21925;44.608;11.580;2022-11-20T07:41:05;101169.59;;;7.71;100.00
35806;BME280;21925;44.608;11.580;2022-11-20T07:43:32;101261.47;;;8.48;100.00
35806;BME280;21925;44.608;11.580;2022-11-20T07:45:59;101265.47;;;8.59;100.00
35806;BME280;21925;44.608;11.580;2022-11-20T07:48:29;101275.09;;;8.81;100.00
35806;BME280;21925;44.608;11.580;2022-11-20T07:50:56;101277.34;;;9.05;100.00
35806;BME280;21925;44.608;11.580;2022-11-20T07:53:24;101257.06;;;8.97;100.00
35806;BME280;21925;44.608;11.580;2022-11-20T07:55:51;101257.91;;;8.98;100.00
35806;BME280;21925;44.608;11.580;2022-11-20T07:58:19;101290.53;;;9.28;100.00
35806;BME280;21925;44.608;11.580;2022-11-20T08:00:46;101271.22;;;9.16;100.00
35806;BME280;21925;44.608;11.580;2022-11-20T08:03:13;101290.81;;;9.35;100.00
35806;BME280;21925;44.608;11.580;2022-11-20T08:05:40;101295.94;;;9.45;100.00
35806;BME280;21925;44.608;11.580;2022-11-20T08:08:06;101223.78;;;9.04;100.00
35806;BME280;21925;44.608;11.580;2022-11-20T08:10:33;101291.03;;;9.67;100.00
35806;BME280;21925;44.608;11.580;2022-11-20T08:13:01;101250.56;;;9.44;100.00
35806;BME280;21925;44.608;11.580;2022-11-20T08:15:52;101236.69;;;9.49;100.00
35806;BME280;21925;44.608;11.580;2022-11-20T08:18:19;101202.28;;;9.31;100.00
35806;BME280;21925;44.608;11.580;2022-11-20T08:20:46;101297.06;;;9.90;100.00
35806;BME280;21925;44.608;11.580;2022-11-20T08:23:16;101251.06;;;9.75;100.00
35806;BME280;21925;44.608;11.580;2022-11-20T08:25:42;101302.00;;;10.13;100.00
35806;BME280;21925;44.608;11.580;2022-11-20T08:28:09;101294.47;;;10.31;100.00
35806;BME280;21925;44.608;11.580;2022-11-20T08:30:38;101269.53;;;10.24;100.00
35806;BME280;21925;44.608;11.580;2022-11-20T08:33:07;101297.88;;;10.48;100.00
35806;BME280;21925;44.608;11.580;2022-11-20T08:35:38;101304.63;;;10.50;100.00
35806;BME280;21925;44.608;11.580;2022-11-20T08:38:05;101311.34;;;10.61;100.00
35806;BME280;21925;44.608;11.580;2022-11-20T08:40:33;101295.78;;;10.74;100.00
35806;BME280;21925;44.608;11.580;2022-11-20T08:43:08;101177.13;;;10.04;100.00
35806;BME280;21925;44.608;11.580;2022-11-20T08:45:36;101240.66;;;10.46;100.00
35806;BME280;21925;44.608;11.580;2022-11-20T08:48:03;101301.59;;;10.93;100.00
35806;BME280;21925;44.608;11.580;2022-11-20T08:50:30;101260.34;;;10.69;100.00
35806;BME280;21925;44.608;11.580;2022-11-20T08:53:05;101302.59;;;11.09;100.00
35806;BME280;21925;44.608;11.580;2022-11-20T08:55:31;101287.16;;;11.16;100.00
35806;BME280;21925;44.608;11.580;2022-11-20T08:57:57;101305.66;;;11.39;100.00
35806;BME280;21925;44.608;11.580;2022-11-20T09:00:22;101181.22;;;10.59;100.00
35806;BME280;21925;44.608;11.580;2022-11-20T09:02:49;101300.38;;;11.55;100.00
35806;BME280;21925;44.608;11.580;2022-11-20T09:05:15;101285.16;;;11.57;100.00
35806;BME280;21925;44.608;11.580;2022-11-20T09:07:41;101268.59;;;11.45;100.00
35806;BME280;21925;44.608;11.580;2022-11-20T09:10:08;101277.03;;;11.61;100.00
35806;BME280;21925;44.608;11.580;2022-11-20T09:12:36;101304.84;;;11.71;100.00
35806;BME280;21925;44.608;11.580;2022-11-20T09:15:03;101298.09;;;11.81;100.00
35806;BME280;21925;44.608;11.580;2022-11-20T09:17:30;101305.94;;;12.02;100.00
35806;BME280;21925;44.608;11.580;2022-11-20T09:19:57;101306.94;;;12.10;100.00
35806;BME280;21925;44.608;11.580;2022-11-20T09:22:23;101247.03;;;11.80;100.00
35806;BME280;21925;44.608;11.580;2022-11-20T09:24:50;101318.19;;;12.29;100.00
35806;BME280;21925;44.608;11.580;2022-11-20T09:27:17;101307.28;;;12.20;100.00
35806;BME280;21925;44.608;11.580;2022-11-20T09:29:47;101310.50;;;12.22;100.00
35806;BME280;21925;44.608;11.580;2022-11-20T09:32:14;101313.69;;;12.36;100.00
35806;BME280;21925;44.608;11.580;2022-11-20T09:34:41;101315.03;;;12.54;100.00
35806;BME280;21925;44.608;11.580;2022-11-20T09:37:07;101305.66;;;12.67;100.00
35806;BME280;21925;44.608;11.580;2022-11-20T09:39:36;101311.19;;;12.82;100.00
35806;BME280;21925;44.608;11.580;2022-11-20T09:42:17;101307.09;;;12.88;100.00
35806;BME280;21925;44.608;11.580;2022-11-20T09:48:12;101311.72;;;13.12;100.00
35806;BME280;21925;44.608;11.580;2022-11-20T09:51:04;101274.81;;;13.01;100.00
35806;BME280;21925;44.608;11.580;2022-11-20T09:56:20;101294.59;;;12.91;100.00
35806;BME280;21925;44.608;11.580;2022-11-20T09:58:51;101312.44;;;13.36;100.00
35806;BME280;21925;44.608;11.580;2022-11-20T10:01:20;101288.00;;;13.07;100.00
35806;BME280;21925;44.608;11.580;2022-11-20T10:04:15;101311.91;;;13.46;100.00
35806;BME280;21925;44.608;11.580;2022-11-20T10:07:16;101310.78;;;13.62;100.00
35806;BME280;21925;44.608;11.580;2022-11-20T10:09:55;101311.03;;;13.57;100.00
35806;BME280;21925;44.608;11.580;2022-11-20T10:12:31;101312.06;;;13.80;100.00
35806;BME280;21925;44.608;11.580;2022-11-20T10:29:17;101288.94;;;14.16;100.00
35806;BME280;21925;44.608;11.580;2022-11-20T10:31:56;101268.47;;;14.01;100.00
35806;BME280;21925;44.608;11.580;2022-11-20T10:34:51;101300.69;;;14.13;100.00
35806;BME280;21925;44.608;11.580;2022-11-20T10:37:24;101274.44;;;14.03;100.00
35806;BME280;21925;44.608;11.580;2022-11-20T10:40:27;101294.50;;;14.04;100.00
35806;BME280;21925;44.608;11.580;2022-11-20T10:42:56;101294.25;;;14.24;100.00
35806;BME280;21925;44.608;11.580;2022-11-20T10:48:23;101295.59;;;14.30;100.00
35806;BME280;21925;44.608;11.580;2022-11-20T10:56:28;101287.66;;;14.44;100.00
35806;BME280;21925;44.608;11.580;2022-11-20T11:01:23;101115.31;;;13.54;100.00
35806;BME280;21925;44.608;11.580;2022-11-20T11:03:51;101276.94;;;14.58;100.00
35806;BME280;21925;44.608;11.580;2022-11-20T11:08:53;101203.53;;;14.19;100.00
35806;BME280;21925;44.608;11.580;2022-11-20T11:11:23;101249.47;;;14.65;100.00
35806;BME280;21925;44.608;11.580;2022-11-20T11:13:50;101168.84;;;14.18;100.00
35806;BME280;21925;44.608;11.580;2022-11-20T11:16:23;101235.31;;;14.66;100.00
35806;BME280;21925;44.608;11.580;2022-11-20T11:18:50;101261.78;;;14.86;100.00
35806;BME280;21925;44.608;11.580;2022-11-20T11:21:24;101222.59;;;14.62;100.00
35806;BME280;21925;44.608;11.580;2022-11-20T11:23:59;101047.72;;;13.56;100.00
35806;BME280;21925;44.608;11.580;2022-11-20T11:26:26;101084.25;;;14.07;100.00
35806;BME280;21925;44.608;11.580;2022-11-20T11:28:58;101238.97;;;15.27;100.00
35806;BME280;21925;44.608;11.580;2022-11-20T11:31:30;101185.78;;;14.73;100.00
35806;BME280;21925;44.608;11.580;2022-11-20T11:34:14;101171.19;;;14.73;100.00
35806;BME280;21925;44.608;11.580;2022-11-20T11:36:48;101136.50;;;14.53;100.00
35806;BME280;21925;44.608;11.580;2022-11-20T11:39:18;101230.44;;;15.16;100.00
35806;BME280;21925;44.608;11.580;2022-11-20T11:41:47;101243.25;;;15.24;100.00
35806;BME280;21925;44.608;11.580;2022-11-20T11:44:20;101171.44;;;14.87;100.00
35806;BME280;21925;44.608;11.580;2022-11-20T11:47:24;101229.94;;;15.52;100.00
35806;BME280;21925;44.608;11.580;2022-11-20T11:55:37;101195.84;;;15.04;100.00
35806;BME280;21925;44.608;11.580;2022-11-20T12:01:14;101214.91;;;15.09;100.00
35806;BME280;21925;44.608;11.580;2022-11-20T12:03:59;101176.50;;;15.04;100.00
35806;BME280;21925;44.608;11.580;2022-11-20T12:06:29;101229.81;;;15.45;100.00
35806;BME280;21925;44.608;11.580;2022-11-20T12:09:05;101222.94;;;15.36;100.00
35806;BME280;21925;44.608;11.580;2022-11-20T12:14:11;101227.19;;;15.52;100.00
35806;BME280;21925;44.608;11.580;2022-11-20T12:16:41;101221.34;;;15.57;100.00
35806;BME280;21925;44.608;11.580;2022-11-20T12:19:11;101216.00;;;15.68;100.00
35806;BME280;21925;44.608;11.580;2022-11-20T12:22:05;101219.88;;;15.86;98.46
35806;BME280;21925;44.608;11.580;2022-11-20T12:27:44;101148.28;;;15.32;100.00
35806;BME280;21925;44.608;11.580;2022-11-20T12:30:15;101202.97;;;15.68;100.00
35806;BME280;21925;44.608;11.580;2022-11-20T12:36:06;101212.34;;;15.86;97.26
35806;BME280;21925;44.608;11.580;2022-11-20T12:58:43;101183.44;;;16.32;97.66
35806;BME280;21925;44.608;11.580;2022-11-20T13:01:25;101183.31;;;16.51;97.80
35806;BME280;21925;44.608;11.580;2022-11-20T13:06:58;101180.31;;;16.63;98.87
35806;BME280;21925;44.608;11.580;2022-11-20T13:09:26;101186.06;;;16.51;93.41
35806;BME280;21925;44.608;11.580;2022-11-20T13:12:24;101117.41;;;16.04;93.01
35806;BME280;21925;44.608;11.580;2022-11-20T13:18:04;101181.66;;;16.20;93.07
35806;BME280;21925;44.608;11.580;2022-11-20T13:20:32;101181.47;;;16.32;96.91
35806;BME280;21925;44.608;11.580;2022-11-20T13:22:58;101183.69;;;16.23;93.85
35806;BME280;21925;44.608;11.580;2022-11-20T13:27:53;101177.16;;;16.09;90.93
35806;BME280;21925;44.608;11.580;2022-11-20T13:30:22;101174.06;;;16.14;93.42
35806;BME280;21925;44.608;11.580;2022-11-20T13:32:58;101144.81;;;15.87;94.17
35806;BME280;21925;44.608;11.580;2022-11-20T13:35:35;101169.69;;;15.61;96.88
35806;BME280;21925;44.608;11.580;2022-11-20T13:38:08;101140.72;;;15.52;95.60
35806;BME280;21925;44.608;11.580;2022-11-20T13:40:55;101137.34;;;15.39;95.24
35806;BME280;21925;44.608;11.580;2022-11-20T13:43:39;101173.88;;;15.74;94.46
35806;BME280;21925;44.608;11.580;2022-11-20T13:46:07;101155.19;;;15.68;93.91
35806;BME280;21925;44.608;11.580;2022-11-20T13:48:39;101152.84;;;15.70;91.03
35806;BME280;21925;44.608;11.580;2022-11-20T13:51:28;101170.97;;;15.67;97.61
35806;BME280;21925;44.608;11.580;2022-11-20T13:54:14;101167.97;;;15.53;94.97
35806;BME280;21925;44.608;11.580;2022-11-20T13:59:53;101170.13;;;15.63;97.82
35806;BME280;21925;44.608;11.580;2022-11-20T14:02:23;101159.72;;;15.57;100.00
35806;BME280;21925;44.608;11.580;2022-11-20T14:04:57;101150.28;;;15.58;99.32
35806;BME280;21925;44.608;11.580;2022-11-20T14:07:35;101178.97;;;15.72;100.00
35806;BME280;21925;44.608;11.580;2022-11-20T14:10:03;101177.13;;;15.57;100.00
35806;BME280;21925;44.608;11.580;2022-11-20T14:12:32;101125.75;;;15.30;100.00
35806;BME280;21925;44.608;11.580;2022-11-20T14:14:58;101165.88;;;15.47;100.00
35806;BME280;21925;44.608;11.580;2022-11-20T14:17:33;101128.38;;;15.23;100.00
35806;BME280;21925;44.608;11.580;2022-11-20T14:20:05;101121.91;;;15.16;100.00